createdAt,value
2023-04-29T00:01:17.897Z,58.40
2023-04-29T00:03:44.855Z,58.50
2023-04-29T00:06:11.948Z,58.30
2023-04-29T00:11:06.316Z,58.00
2023-04-29T00:13:33.071Z,58.50
2023-04-29T00:15:59.806Z,59.70
2023-04-29T00:18:26.540Z,58.60
2023-04-29T00:20:53.276Z,58.70
2023-04-29T00:23:20.021Z,58.60
2023-04-29T00:25:46.765Z,58.60
2023-04-29T00:28:13.614Z,58.80
2023-04-29T00:30:40.579Z,59.30
2023-04-29T00:33:07.420Z,58.80
2023-04-29T00:35:34.614Z,58.80
2023-04-29T00:38:01.372Z,58.80
2023-04-29T00:40:29.240Z,58.80
2023-04-29T00:42:56.047Z,58.90
2023-04-29T00:45:23.093Z,58.80
2023-04-29T00:47:49.868Z,59.00
2023-04-29T00:50:16.660Z,59.00
2023-04-29T00:55:15.366Z,58.70
2023-04-29T00:57:42.599Z,59.20
2023-04-29T01:00:10.234Z,59.30
2023-04-29T01:02:37.828Z,59.50
2023-04-29T01:05:05.040Z,59.40
2023-04-29T01:07:56.526Z,59.40
2023-04-29T01:10:47.033Z,59.70
2023-04-29T01:13:25.946Z,59.80
2023-04-29T01:16:08.784Z,59.80
2023-04-29T01:18:43.157Z,60.90
2023-04-29T01:23:37.116Z,59.30
2023-04-29T01:26:05.614Z,60.00
2023-04-29T01:29:12.353Z,60.30
2023-04-29T01:31:51.404Z,62.20
2023-04-29T01:34:30.693Z,61.30
2023-04-29T01:37:19.486Z,61.90
2023-04-29T01:40:25.856Z,62.90
2023-04-29T01:43:08.203Z,63.70
2023-04-29T01:45:38.137Z,62.70
2023-04-29T01:48:05.750Z,62.40
2023-04-29T01:50:32.721Z,62.60
2023-04-29T01:52:59.492Z,63.20
2023-04-29T01:55:26.217Z,63.30
2023-04-29T01:57:53.628Z,63.50
2023-04-29T02:00:20.698Z,64.30
2023-04-29T02:02:47.604Z,65.50
2023-04-29T02:07:42.464Z,63.80
2023-04-29T02:10:09.710Z,64.70
2023-04-29T02:12:36.536Z,64.30
2023-04-29T02:15:03.494Z,65.20
2023-04-29T02:17:30.282Z,65.20
2023-04-29T02:19:57.102Z,65.20
2023-04-29T02:22:23.885Z,65.40
2023-04-29T02:24:50.618Z,65.40
2023-04-29T02:27:17.351Z,65.60
2023-04-29T02:29:44.100Z,66.00
2023-04-29T02:32:10.909Z,66.50
2023-04-29T02:34:38.497Z,66.40
2023-04-29T02:37:05.321Z,66.60
2023-04-29T02:39:32.090Z,66.70
2023-04-29T02:41:58.878Z,66.60
2023-04-29T02:44:25.856Z,66.80
2023-04-29T02:46:52.721Z,66.90
2023-04-29T02:49:19.510Z,66.80
2023-04-29T02:51:46.303Z,67.20
2023-04-29T02:54:13.244Z,67.50
2023-04-29T02:56:40.017Z,67.50
2023-04-29T02:59:06.804Z,67.70
2023-04-29T03:01:33.560Z,68.10
2023-04-29T03:04:01.822Z,67.70
2023-04-29T03:06:28.718Z,68.40
2023-04-29T03:08:55.763Z,68.60
2023-04-29T03:11:24.872Z,68.60
2023-04-29T03:13:51.658Z,68.80
2023-04-29T03:16:18.458Z,68.90
2023-04-29T03:21:12.691Z,68.70
2023-04-29T03:23:40.165Z,69.40
2023-04-29T03:26:07.292Z,68.90
2023-04-29T03:28:34.126Z,69.50
2023-04-29T03:31:01.020Z,69.50
2023-04-29T03:33:27.867Z,69.70
2023-04-29T03:35:54.702Z,70.00
2023-04-29T03:38:21.816Z,70.10
2023-04-29T03:40:48.629Z,70.30
2023-04-29T03:43:15.390Z,70.40
2023-04-29T03:45:42.143Z,69.90
2023-04-29T03:48:09.450Z,70.60
2023-04-29T03:50:37.318Z,70.70
2023-04-29T03:53:04.103Z,71.00
2023-04-29T03:55:30.934Z,71.00
2023-04-29T03:57:57.673Z,71.20
2023-04-29T04:00:26.416Z,71.40
2023-04-29T04:02:53.414Z,73.50
2023-04-29T04:05:21.442Z,71.70
2023-04-29T04:07:48.238Z,71.30
2023-04-29T04:10:15.082Z,71.70
2023-04-29T04:12:43.903Z,71.90
2023-04-29T04:15:11.246Z,71.70
2023-04-29T04:17:38.172Z,72.10
2023-04-29T04:20:05.903Z,72.30
2023-04-29T04:22:32.651Z,72.70
2023-04-29T04:24:59.417Z,72.70
2023-04-29T04:27:26.189Z,72.70
2023-04-29T04:29:56.143Z,72.80
2023-04-29T04:34:51.017Z,72.40
2023-04-29T04:37:18.170Z,73.30
2023-04-29T04:39:45.038Z,73.40
2023-04-29T04:42:11.820Z,74.60
2023-04-29T04:44:38.683Z,73.50
2023-04-29T04:49:33.414Z,72.90
2023-04-29T04:52:00.282Z,73.70
2023-04-29T04:54:27.108Z,73.90
2023-04-29T04:56:53.867Z,73.90
2023-04-29T04:59:21.001Z,74.00
2023-04-29T05:01:47.766Z,75.30
2023-04-29T05:04:15.616Z,74.10
2023-04-29T05:06:42.631Z,74.20
2023-04-29T05:09:09.400Z,74.40
2023-04-29T05:11:36.132Z,74.40
2023-04-29T05:14:02.862Z,74.50
2023-04-29T05:16:29.826Z,74.50
2023-04-29T05:18:56.653Z,74.60
2023-04-29T05:21:23.519Z,74.80
2023-04-29T05:23:50.516Z,74.90
2023-04-29T05:26:17.239Z,75.00
2023-04-29T05:28:44.023Z,75.10
2023-04-29T05:31:11.414Z,75.10
2023-04-29T05:33:38.456Z,75.30
2023-04-29T05:36:06.664Z,75.10
2023-04-29T05:38:33.450Z,75.30
2023-04-29T05:41:00.172Z,75.40
2023-04-29T05:43:27.504Z,75.60
2023-04-29T05:45:54.332Z,75.80
2023-04-29T05:48:21.199Z,75.90
2023-04-29T05:50:48.572Z,76.10
2023-04-29T05:53:15.462Z,76.10
2023-04-29T05:55:44.937Z,76.10
2023-04-29T06:00:39.799Z,75.60
2023-04-29T06:03:06.856Z,77.80
2023-04-29T06:05:34.514Z,76.40
2023-04-29T06:08:02.258Z,76.60
2023-04-29T06:10:29.084Z,76.40
2023-04-29T06:12:55.849Z,76.80
2023-04-29T06:15:22.656Z,76.80
2023-04-29T06:17:49.431Z,77.00
2023-04-29T06:20:17.665Z,77.10
2023-04-29T06:22:45.081Z,77.20
2023-04-29T06:25:12.078Z,77.10
2023-04-29T06:27:38.796Z,78.10
2023-04-29T06:30:06.813Z,77.40
2023-04-29T06:32:34.012Z,77.70
2023-04-29T06:35:01.206Z,77.70
2023-04-29T06:37:28.808Z,78.00
2023-04-29T06:39:55.660Z,77.80
2023-04-29T06:42:22.440Z,78.00
2023-04-29T06:47:16.490Z,77.20
2023-04-29T06:49:46.209Z,78.00
2023-04-29T06:52:13.678Z,77.60
2023-04-29T06:54:40.522Z,77.80
2023-04-29T06:57:07.316Z,78.10
2023-04-29T06:59:34.087Z,78.00
2023-04-29T07:02:00.920Z,79.50
2023-04-29T07:04:27.688Z,78.20
2023-04-29T07:06:55.710Z,78.20
2023-04-29T07:09:23.734Z,78.80
2023-04-29T07:11:50.509Z,78.30
2023-04-29T07:14:17.269Z,78.30
2023-04-29T07:16:44.051Z,78.30
2023-04-29T07:19:10.919Z,79.10
2023-04-29T07:21:37.684Z,78.10
2023-04-29T07:24:05.023Z,78.10
2023-04-29T07:26:32.023Z,78.60
2023-04-29T07:28:58.934Z,78.40
2023-04-29T07:31:25.801Z,79.20
2023-04-29T07:33:53.010Z,78.80
2023-04-29T07:36:19.761Z,78.70
2023-04-29T07:38:46.475Z,78.70
2023-04-29T07:41:13.786Z,78.80
2023-04-29T07:43:42.220Z,79.10
2023-04-29T07:46:09.389Z,79.30
2023-04-29T07:48:39.691Z,79.10
2023-04-29T07:51:06.988Z,79.40
2023-04-29T07:53:33.801Z,79.00
2023-04-29T07:56:08.802Z,79.00
2023-04-29T07:58:35.864Z,79.70
2023-04-29T08:01:09.240Z,78.70
2023-04-29T08:03:38.226Z,79.50
2023-04-29T08:06:07.383Z,78.70
2023-04-29T08:11:01.659Z,78.70
2023-04-29T08:13:28.402Z,78.30
2023-04-29T08:15:55.504Z,79.00
2023-04-29T08:18:22.378Z,80.10
2023-04-29T08:20:49.532Z,79.60
2023-04-29T08:23:16.328Z,79.60
2023-04-29T08:25:44.024Z,79.80
2023-04-29T08:28:11.449Z,79.90
2023-04-29T08:30:41.040Z,79.80
2023-04-29T08:33:08.936Z,80.50
2023-04-29T08:35:39.064Z,79.80
2023-04-29T08:38:07.196Z,80.50
2023-04-29T08:40:42.795Z,80.10
2023-04-29T08:43:10.632Z,81.10
2023-04-29T08:45:38.001Z,80.10
2023-04-29T08:48:07.621Z,79.80
2023-04-29T08:50:42.671Z,80.80
2023-04-29T08:53:11.937Z,80.80
2023-04-29T08:55:47.450Z,80.40
2023-04-29T08:58:16.252Z,80.70
2023-04-29T09:00:45.047Z,79.80
2023-04-29T09:03:27.685Z,80.70
2023-04-29T09:05:59.885Z,81.00
2023-04-29T09:08:27.668Z,80.50
2023-04-29T09:10:54.746Z,80.10
2023-04-29T09:13:28.318Z,80.60
2023-04-29T09:15:56.188Z,80.40
2023-04-29T09:18:50.963Z,80.60
2023-04-29T09:21:22.706Z,82.30
2023-04-29T09:24:01.612Z,80.50
2023-04-29T09:26:42.600Z,80.80
2023-04-29T09:29:15.982Z,80.80
2023-04-29T09:31:43.060Z,81.00
2023-04-29T09:34:11.984Z,80.60
2023-04-29T09:36:53.868Z,80.60
2023-04-29T09:39:22.748Z,81.20
2023-04-29T09:41:52.519Z,81.00
2023-04-29T09:44:24.675Z,81.30
2023-04-29T09:47:09.203Z,81.10
2023-04-29T09:49:41.933Z,82.00
2023-04-29T09:52:14.962Z,81.50
2023-04-29T09:54:44.298Z,81.50
2023-04-29T09:57:15.723Z,81.60
2023-04-29T09:59:43.467Z,80.80
2023-04-29T10:02:18.668Z,81.20
2023-04-29T10:04:50.230Z,81.20
2023-04-29T10:07:18.207Z,80.90
2023-04-29T10:09:47.754Z,82.20
2023-04-29T10:12:20.545Z,81.30
2023-04-29T10:15:17.814Z,81.10
2023-04-29T10:17:52.625Z,82.50
2023-04-29T10:20:25.124Z,81.50
2023-04-29T10:22:57.835Z,81.20
2023-04-29T10:25:27.878Z,81.40
2023-04-29T10:27:56.203Z,81.70
2023-04-29T10:30:23.245Z,82.00
2023-04-29T10:32:52.790Z,81.50
2023-04-29T10:35:25.654Z,81.80
2023-04-29T10:37:55.946Z,81.30
2023-04-29T10:40:36.463Z,81.70
2023-04-29T10:43:04.586Z,82.40
2023-04-29T10:45:35.981Z,80.40
2023-04-29T10:48:06.102Z,81.20
2023-04-29T10:50:47.398Z,81.80
2023-04-29T10:53:20.034Z,81.60
2023-04-29T10:56:03.302Z,80.70
2023-04-29T10:58:38.598Z,81.50
2023-04-29T11:01:07.825Z,81.80
2023-04-29T11:04:04.903Z,80.90
2023-04-29T11:06:37.663Z,81.20
2023-04-29T11:09:12.586Z,80.40
2023-04-29T11:12:03.372Z,80.30
2023-04-29T11:14:37.433Z,80.70
2023-04-29T11:17:08.814Z,80.20
2023-04-29T11:19:41.164Z,80.90
2023-04-29T11:22:22.981Z,80.00
2023-04-29T11:25:02.416Z,79.30
2023-04-29T11:27:38.771Z,79.00
2023-04-29T11:30:07.580Z,78.80
2023-04-29T11:32:38.615Z,78.40
2023-04-29T11:35:17.392Z,78.10
2023-04-29T11:37:46.302Z,77.80
2023-04-29T11:40:14.731Z,77.40
2023-04-29T11:42:48.427Z,77.30
2023-04-29T11:45:18.580Z,77.20
2023-04-29T11:47:47.631Z,77.20
2023-04-29T11:50:19.127Z,76.90
2023-04-29T11:52:49.813Z,76.10
2023-04-29T11:55:16.800Z,75.00
2023-04-29T11:57:43.715Z,74.60
2023-04-29T12:00:14.646Z,73.30
2023-04-29T12:02:48.996Z,72.80
2023-04-29T12:05:17.212Z,72.70
2023-04-29T12:07:44.509Z,72.60
2023-04-29T12:10:12.833Z,72.30
2023-04-29T12:12:41.376Z,71.90
2023-04-29T12:15:10.424Z,71.80
2023-04-29T12:17:39.087Z,71.30
2023-04-29T12:20:09.880Z,71.10
2023-04-29T12:22:36.955Z,71.00
2023-04-29T12:25:05.370Z,70.10
2023-04-29T12:27:33.964Z,70.90
2023-04-29T12:32:28.223Z,69.80
2023-04-29T12:34:55.979Z,70.40
2023-04-29T12:37:26.347Z,70.60
2023-04-29T12:39:55.857Z,70.70
2023-04-29T12:42:22.575Z,70.40
2023-04-29T12:44:49.553Z,70.40
2023-04-29T12:47:18.497Z,70.20
2023-04-29T12:49:47.053Z,70.30
2023-04-29T12:52:14.195Z,70.50
2023-04-29T12:54:44.810Z,70.10
2023-04-29T12:57:12.586Z,69.10
2023-04-29T12:59:41.297Z,68.90
2023-04-29T13:02:08.504Z,67.40
2023-04-29T13:04:35.843Z,68.40
2023-04-29T13:07:04.299Z,68.10
2023-04-29T13:09:31.421Z,67.70
2023-04-29T13:11:59.245Z,67.80
2023-04-29T13:14:26.820Z,67.70
2023-04-29T13:16:53.846Z,67.50
2023-04-29T13:19:38.440Z,67.40
2023-04-29T13:22:07.485Z,67.30
2023-04-29T13:24:35.888Z,67.20
2023-04-29T13:27:05.817Z,67.20
2023-04-29T13:29:32.681Z,66.50
2023-04-29T13:31:59.565Z,66.50
2023-04-29T13:34:26.360Z,65.70
2023-04-29T13:36:53.086Z,64.10
2023-04-29T13:39:22.917Z,65.40
2023-04-29T13:41:50.117Z,65.20
2023-04-29T13:44:27.105Z,64.30
2023-04-29T13:46:57.734Z,63.90
2023-04-29T13:49:56.009Z,63.40
2023-04-29T13:53:10.031Z,62.50
2023-04-29T13:55:43.086Z,63.50
2023-04-29T14:05:25.342Z,62.70
2023-04-29T14:07:52.309Z,62.70
2023-04-29T14:10:19.134Z,62.40
2023-04-29T14:12:48.706Z,62.10
2023-04-29T14:15:16.087Z,62.40
2023-04-29T14:17:43.042Z,62.50
2023-04-29T14:20:10.371Z,61.90
2023-04-29T14:22:37.204Z,61.50
2023-04-29T14:25:04.310Z,61.20
2023-04-29T14:27:31.448Z,61.00
2023-04-29T14:29:58.236Z,60.60
2023-04-29T14:32:25.098Z,61.00
2023-04-29T14:34:52.008Z,60.80
2023-04-29T14:37:18.959Z,60.70
2023-04-29T14:39:45.731Z,61.10
2023-04-29T14:42:13.621Z,61.20
2023-04-29T14:44:40.784Z,61.00
2023-04-29T14:47:08.256Z,61.00
2023-04-29T14:49:35.106Z,60.40
2023-04-29T14:52:02.112Z,60.30
2023-04-29T14:54:29.153Z,60.40
2023-04-29T14:56:55.941Z,60.00
2023-04-29T14:59:22.773Z,59.80
2023-04-29T15:01:49.584Z,59.10
2023-04-29T15:06:43.696Z,59.60
2023-04-29T15:09:10.430Z,60.30
2023-04-29T15:11:37.537Z,60.10
2023-04-29T15:14:04.368Z,59.50
2023-04-29T15:16:31.647Z,59.40
2023-04-29T15:18:59.243Z,59.40
2023-04-29T15:21:26.834Z,58.60
2023-04-29T15:23:53.722Z,59.00
2023-04-29T15:26:21.788Z,58.80
2023-04-29T15:28:48.551Z,58.80
2023-04-29T15:31:15.495Z,58.80
2023-04-29T15:33:42.268Z,58.90
2023-04-29T15:38:36.316Z,58.30
2023-04-29T15:41:03.953Z,58.50
2023-04-29T15:43:32.574Z,58.30
2023-04-29T15:46:00.031Z,58.30
2023-04-29T15:48:27.279Z,58.10
2023-04-29T15:50:54.049Z,58.20
2023-04-29T15:53:21.417Z,58.10
2023-04-29T15:55:48.238Z,58.00
2023-04-29T15:58:14.989Z,58.00
2023-04-29T16:00:41.724Z,57.30
2023-04-29T16:03:08.670Z,58.20
2023-04-29T16:05:36.925Z,58.00
2023-04-29T16:08:03.733Z,58.20
2023-04-29T16:10:30.501Z,58.30
2023-04-29T16:12:57.653Z,58.40
2023-04-29T16:15:24.768Z,58.40
2023-04-29T16:17:52.031Z,58.50
2023-04-29T16:20:19.450Z,58.50
2023-04-29T16:27:40.710Z,58.00
2023-04-29T16:30:08.426Z,57.80
2023-04-29T16:32:35.279Z,58.30
2023-04-29T16:35:02.209Z,58.20
2023-04-29T16:37:29.280Z,58.20
2023-04-29T16:39:56.086Z,58.00
2023-04-29T16:42:22.826Z,58.00
2023-04-29T16:44:49.619Z,58.10
2023-04-29T16:47:19.074Z,58.10
2023-04-29T16:49:46.889Z,57.70
2023-04-29T16:52:13.765Z,57.80
2023-04-29T16:54:41.473Z,57.80
2023-04-29T16:57:08.330Z,57.70
2023-04-29T16:59:35.138Z,57.50
2023-04-29T17:02:03.010Z,57.90
2023-04-29T17:04:31.529Z,57.70
2023-04-29T17:07:01.270Z,57.20
2023-04-29T17:09:28.180Z,57.00
2023-04-29T17:11:55.272Z,56.70
2023-04-29T17:14:22.426Z,56.40
2023-04-29T17:16:49.161Z,56.10
2023-04-29T17:19:16.582Z,56.20
2023-04-29T17:21:43.364Z,55.80
2023-04-29T17:24:10.129Z,55.40
2023-04-29T17:26:36.868Z,54.90
2023-04-29T17:29:04.234Z,52.10
2023-04-29T17:31:44.818Z,53.20
2023-04-29T17:34:18.725Z,53.10
2023-04-29T17:36:46.644Z,52.90
2023-04-29T17:39:13.919Z,51.90
2023-04-29T17:41:41.188Z,52.50
2023-04-29T17:44:09.270Z,51.80
2023-04-29T17:46:37.379Z,52.80
2023-04-29T17:49:05.436Z,52.40
2023-04-29T17:51:35.404Z,52.60
2023-04-29T17:54:05.486Z,53.10
2023-04-29T17:56:34.746Z,52.80
2023-04-29T17:59:03.108Z,52.00
2023-04-29T18:01:29.910Z,51.20
2023-04-29T18:03:56.685Z,52.80
2023-04-29T18:06:23.905Z,52.90
2023-04-29T18:08:50.743Z,53.00
2023-04-29T18:11:17.476Z,53.00
2023-04-29T18:13:44.215Z,52.90
2023-04-29T18:16:11.180Z,53.00
2023-04-29T18:18:38.008Z,53.10
2023-04-29T18:21:05.091Z,52.80
2023-04-29T18:23:31.969Z,52.90
2023-04-29T18:25:58.725Z,53.10
2023-04-29T18:28:25.907Z,53.10
2023-04-29T18:30:52.892Z,52.50
2023-04-29T18:33:19.810Z,52.40
2023-04-29T18:35:46.913Z,52.40
2023-04-29T18:38:17.197Z,52.30
2023-04-29T18:40:44.582Z,52.20
2023-04-29T18:43:12.086Z,52.30
2023-04-29T18:45:38.911Z,51.80
2023-04-29T18:48:06.983Z,52.40
2023-04-29T18:50:34.177Z,52.50
2023-04-29T18:53:01.047Z,52.60
2023-04-29T18:55:27.828Z,52.50
2023-04-29T18:57:54.641Z,52.60
2023-04-29T19:00:21.793Z,51.70
2023-04-29T19:02:48.869Z,52.70
2023-04-29T19:05:16.653Z,52.80
2023-04-29T19:07:43.385Z,52.90
2023-04-29T19:10:10.509Z,52.80
2023-04-29T19:12:38.528Z,52.90
2023-04-29T19:15:06.691Z,52.80
2023-04-29T19:17:33.735Z,53.00
2023-04-29T19:20:00.784Z,53.00
2023-04-29T19:22:28.531Z,53.00
2023-04-29T19:24:55.890Z,53.10
2023-04-29T19:27:23.855Z,53.00
2023-04-29T19:29:51.184Z,53.10
2023-04-29T19:32:19.733Z,53.30
2023-04-29T19:34:47.109Z,53.20
2023-04-29T19:37:14.546Z,52.90
2023-04-29T19:39:41.289Z,53.00
2023-04-29T19:42:08.077Z,53.10
2023-04-29T19:44:35.649Z,53.20
2023-04-29T19:47:02.441Z,53.20
2023-04-29T19:49:29.231Z,53.20
2023-04-29T19:51:56.046Z,53.40
2023-04-29T19:54:22.773Z,53.50
2023-04-29T19:56:49.543Z,53.40
2023-04-29T19:59:16.320Z,53.00
2023-04-29T20:01:43.095Z,53.50
2023-04-29T20:04:11.866Z,53.40
2023-04-29T20:06:39.539Z,53.40
2023-04-29T20:09:08.685Z,52.80
2023-04-29T20:11:36.197Z,53.70
2023-04-29T20:14:02.994Z,53.70
2023-04-29T20:16:31.474Z,53.50
2023-04-29T20:18:58.881Z,53.60
2023-04-29T20:21:26.115Z,53.60
2023-04-29T20:23:52.978Z,53.50
2023-04-29T20:26:19.973Z,53.50
2023-04-29T20:28:47.207Z,53.50
2023-04-29T20:31:14.020Z,53.50
2023-04-29T20:36:08.127Z,53.00
2023-04-29T20:38:35.258Z,53.50
2023-04-29T20:41:03.489Z,53.50
2023-04-29T20:43:30.310Z,53.00
2023-04-29T20:45:58.439Z,52.70
2023-04-29T20:48:25.368Z,53.50
2023-04-29T20:50:52.122Z,53.60
2023-04-29T20:53:18.937Z,53.60
2023-04-29T20:55:46.735Z,53.20
2023-04-29T20:58:13.620Z,53.70
2023-04-29T21:03:08.489Z,53.20
2023-04-29T21:05:35.384Z,53.10
2023-04-29T21:08:02.198Z,53.20
2023-04-29T21:10:28.966Z,53.20
2023-04-29T21:12:55.907Z,53.90
2023-04-29T21:15:22.728Z,53.50
2023-04-29T21:17:49.582Z,53.90
2023-04-29T21:20:17.191Z,53.40
2023-04-29T21:22:45.036Z,53.50
2023-04-29T21:25:12.438Z,53.60
2023-04-29T21:27:39.213Z,54.10
2023-04-29T21:30:06.700Z,53.40
2023-04-29T21:32:33.898Z,53.50
2023-04-29T21:35:00.873Z,54.70
2023-04-29T21:37:30.484Z,53.90
2023-04-29T21:39:58.158Z,54.30
2023-04-29T21:42:26.678Z,54.40
2023-04-29T21:44:57.559Z,54.50
2023-04-29T21:47:25.568Z,54.50
2023-04-29T21:49:54.243Z,54.50
2023-04-29T21:52:21.176Z,54.60
2023-04-29T21:54:47.916Z,54.60
2023-04-29T21:57:14.659Z,54.20
2023-04-29T21:59:41.442Z,54.40
2023-04-29T22:02:17.414Z,54.80
2023-04-29T22:04:44.275Z,54.90
2023-04-29T22:07:11.068Z,54.90
2023-04-29T22:09:37.862Z,54.80
2023-04-29T22:12:04.735Z,55.10
2023-04-29T22:14:31.521Z,54.90
2023-04-29T22:16:58.246Z,54.30
2023-04-29T22:19:25.041Z,55.40
2023-04-29T22:21:51.792Z,55.50
2023-04-29T22:24:18.506Z,55.60
2023-04-29T22:26:45.739Z,55.60
2023-04-29T22:29:12.555Z,55.80
2023-04-29T22:31:39.347Z,55.80
2023-04-29T22:34:06.147Z,55.90
2023-04-29T22:36:33.056Z,56.00
2023-04-29T22:38:59.830Z,56.00
2023-04-29T22:41:27.019Z,56.00
2023-04-29T22:43:57.222Z,56.00
2023-04-29T22:46:25.502Z,56.00
2023-04-29T22:48:52.498Z,56.20
2023-04-29T22:51:20.063Z,56.20
2023-04-29T22:53:46.792Z,56.20
2023-04-29T22:56:13.550Z,56.30
2023-04-29T22:58:41.200Z,56.30
2023-04-29T23:01:10.589Z,56.40
2023-04-29T23:03:38.712Z,56.40
2023-04-29T23:06:06.604Z,56.50
2023-04-29T23:08:33.498Z,56.70
2023-04-29T23:11:00.268Z,56.70
2023-04-29T23:13:27.037Z,56.70
2023-04-29T23:15:57.616Z,56.70
2023-04-29T23:18:24.435Z,57.00
2023-04-29T23:20:51.666Z,56.80
2023-04-29T23:23:18.441Z,56.90
2023-04-29T23:25:45.820Z,57.00
2023-04-29T23:28:12.642Z,57.00
2023-04-29T23:30:39.383Z,57.10
2023-04-29T23:33:07.005Z,57.10
2023-04-29T23:35:33.786Z,57.20
2023-04-29T23:38:00.692Z,57.20
2023-04-29T23:40:27.430Z,57.40
2023-04-29T23:42:54.193Z,57.50
2023-04-29T23:45:20.914Z,57.60
2023-04-29T23:47:47.755Z,57.50
2023-04-29T23:50:14.652Z,57.60
2023-04-29T23:52:41.438Z,57.60
2023-04-29T23:55:09.204Z,57.60
2023-04-29T23:57:36.003Z,57.30
